Itapiratins, Brazil
Current Conditions -  °F | °C
As of 1:00 AM on Wednesday 22 Oct 2014 (Local Time) from SBPJ Reporting Station
Few Clouds Few Clouds  
Wind Chill: 77°   Ceiling: Unl
Heat Index: 79°   Visibility: 6mi
Dew Point: 68°   Wind: 3mph
Humidity: 74%   Direction: 20°NNE
Pressure: 29.85"   Gusts: NA
Location:  8.38°S, 48.11°W
Report Text: SBPJ 220400Z 02003KT 9999 FEW020 FEW030TCU 25/20 Q1011
Loading
Personal Weather Stations






























Interactive Weather Map
Tropical Storm Tracking
New forecast layout! Learn more

10-Day Weather Forecast

Advertisements
Track Severe Weather on mobile